createdAt,value
2018-07-01T00:00:57.629Z,0
2018-07-01T00:01:57.355Z,0
2018-07-01T00:02:57.772Z,0
2018-07-01T00:03:57.425Z,0
2018-07-01T00:04:57.235Z,0
2018-07-01T00:05:57.335Z,0
2018-07-01T00:06:57.397Z,0
2018-07-01T00:07:56.998Z,0
2018-07-01T00:08:57.093Z,0
2018-07-01T00:09:57.331Z,0
2018-07-01T00:10:57.150Z,0
2018-07-01T00:11:57.032Z,0
2018-07-01T00:12:57.236Z,0
2018-07-01T00:13:57.078Z,0
2018-07-01T00:14:57.085Z,0
2018-07-01T00:15:57.799Z,0
2018-07-01T00:16:57.682Z,0
2018-07-01T00:17:57.774Z,0
2018-07-01T00:18:57.276Z,0
2018-07-01T00:19:57.819Z,0
2018-07-01T00:20:57.898Z,0
2018-07-01T00:21:57.869Z,0
2018-07-01T00:22:57.636Z,0
2018-07-01T00:23:57.917Z,0
2018-07-01T00:24:57.938Z,0
2018-07-01T00:25:57.972Z,0
2018-07-01T00:26:57.724Z,0
2018-07-01T00:27:57.737Z,0
2018-07-01T00:28:57.772Z,0
2018-07-01T00:29:57.520Z,0
2018-07-01T00:30:58.075Z,0
2018-07-01T00:31:58.097Z,0
2018-07-01T00:32:58.116Z,0
2018-07-01T00:33:57.610Z,0
2018-07-01T00:34:58.187Z,0
2018-07-01T00:35:58.186Z,0
2018-07-01T00:36:58.217Z,0
2018-07-01T00:37:57.965Z,0
2018-07-01T00:38:57.993Z,0
2018-07-01T00:39:58.275Z,0
2018-07-01T00:40:58.306Z,0
2018-07-01T00:41:58.323Z,0
2018-07-01T00:42:58.109Z,0
2018-07-01T00:43:58.368Z,0
2018-07-01T00:44:58.177Z,0
2018-07-01T00:45:58.164Z,0
2018-07-01T00:46:58.174Z,0
2018-07-01T00:47:58.467Z,0
2018-07-01T00:48:58.497Z,0
2018-07-01T00:49:58.506Z,0
2018-07-01T00:50:58.261Z,0
2018-07-01T00:51:58.305Z,0
2018-07-01T00:52:58.310Z,0
2018-07-01T00:53:58.601Z,0
2018-07-01T00:54:58.621Z,0
2018-07-01T00:55:58.656Z,0
2018-07-01T00:56:58.411Z,0
2018-07-01T00:57:58.417Z,0
2018-07-01T00:58:58.705Z,0
2018-07-01T00:59:58.736Z,0
2018-07-01T01:00:58.762Z,0
2018-07-01T01:03:53.401Z,0
2018-07-01T01:04:03.224Z,0
2018-07-01T01:05:03.249Z,0
2018-07-01T01:06:02.999Z,0
2018-07-01T01:07:03.283Z,0
2018-07-01T01:08:02.789Z,0
2018-07-01T01:09:02.797Z,0
2018-07-01T01:10:03.106Z,0
2018-07-01T01:11:03.390Z,0
2018-07-01T01:12:02.877Z,0
2018-07-01T01:13:03.145Z,0
2018-07-01T01:14:03.451Z,0
2018-07-01T01:15:03.465Z,0
2018-07-01T01:16:03.221Z,0
2018-07-01T01:17:03.498Z,0
2018-07-01T01:18:03.266Z,0
2018-07-01T01:19:03.548Z,0
2018-07-01T01:20:03.305Z,0
2018-07-01T01:21:03.634Z,0
2018-07-01T01:22:03.371Z,0
2018-07-01T01:23:03.385Z,0
2018-07-01T01:24:03.158Z,0
2018-07-01T01:25:03.416Z,0
2018-07-01T01:26:03.449Z,0
2018-07-01T01:27:03.466Z,0
2018-07-01T01:28:03.494Z,0
2018-07-01T01:29:03.509Z,0
2018-07-01T01:30:03.542Z,0
2018-07-01T01:31:03.820Z,0
2018-07-01T01:32:03.584Z,0
2018-07-01T01:33:03.879Z,0
2018-07-01T01:34:03.901Z,0
2018-07-01T01:35:03.908Z,0
2018-07-01T01:36:03.677Z,0
2018-07-01T01:37:03.430Z,0
2018-07-01T01:38:03.445Z,0
2018-07-01T01:39:04.005Z,0
2018-07-01T01:40:03.485Z,0
2018-07-01T01:41:03.769Z,0
2018-07-01T01:42:03.792Z,0
2018-07-01T01:43:03.559Z,0
2018-07-01T01:44:03.845Z,0
2018-07-01T01:45:03.873Z,0
2018-07-01T01:46:03.895Z,0
2018-07-01T01:47:04.224Z,0
2018-07-01T01:48:03.701Z,0
2018-07-01T01:49:03.951Z,0
2018-07-01T01:50:03.981Z,0
2018-07-01T01:51:03.726Z,0
2018-07-01T01:52:04.019Z,0
2018-07-01T01:53:04.046Z,0
2018-07-01T01:54:04.058Z,0
2018-07-01T01:55:04.374Z,0
2018-07-01T01:56:04.105Z,0
2018-07-01T01:57:04.397Z,0
2018-07-01T01:58:04.411Z,0
2018-07-01T01:59:04.435Z,0
2018-07-01T02:00:04.456Z,0
2018-07-01T02:01:03.954Z,0
2018-07-01T02:02:04.498Z,0
2018-07-01T02:03:04.015Z,0
2018-07-01T02:04:04.278Z,0
2018-07-01T02:05:04.625Z,0
2018-07-01T02:06:04.594Z,0
2018-07-01T02:07:04.081Z,0
2018-07-01T02:08:04.382Z,0
2018-07-01T02:09:04.401Z,0
2018-07-01T02:10:04.411Z,0
2018-07-01T02:11:04.703Z,0
2018-07-01T02:12:04.454Z,0
2018-07-01T02:13:04.480Z,0
2018-07-01T02:14:04.232Z,0
2018-07-01T02:15:04.514Z,0
2018-07-01T02:16:04.544Z,0
2018-07-01T02:17:04.570Z,0
2018-07-01T02:18:04.609Z,0
2018-07-01T02:19:04.350Z,0
2018-07-01T02:20:04.897Z,0
2018-07-01T02:21:05.026Z,0
2018-07-01T02:22:04.671Z,0
2018-07-01T02:23:04.693Z,0
2018-07-01T02:24:04.467Z,0
2018-07-01T02:25:05.006Z,0
2018-07-01T02:26:04.781Z,0
2018-07-01T02:27:04.782Z,0
2018-07-01T02:28:04.835Z,0
2018-07-01T02:29:05.101Z,0
2018-07-01T02:30:04.604Z,0
2018-07-01T02:31:05.142Z,0
2018-07-01T02:32:05.188Z,4
2018-07-01T02:33:05.192Z,4
2018-07-01T02:34:04.955Z,0
2018-07-01T02:35:05.223Z,0
2018-07-01T02:36:05.250Z,0
2018-07-01T02:37:05.274Z,4
2018-07-01T02:38:05.313Z,4
2018-07-01T02:39:05.316Z,4
2018-07-01T02:40:05.090Z,4
2018-07-01T02:41:05.360Z,4
2018-07-01T02:42:05.397Z,4
2018-07-01T02:43:05.143Z,8
2018-07-01T02:44:05.152Z,4
2018-07-01T02:45:05.448Z,8
2018-07-01T02:46:05.209Z,8
2018-07-01T02:47:04.969Z,8
2018-07-01T02:48:05.319Z,8
2018-07-01T02:49:05.526Z,8
2018-07-01T02:50:05.305Z,12
2018-07-01T02:51:05.360Z,8
2018-07-01T02:52:05.342Z,12
2018-07-01T02:53:05.349Z,16
2018-07-01T02:54:05.401Z,16
2018-07-01T02:55:05.131Z,16
2018-07-01T02:56:05.423Z,20
2018-07-01T02:57:05.702Z,20
2018-07-01T02:58:05.216Z,24
2018-07-01T02:59:05.480Z,24
2018-07-01T03:00:05.520Z,24
2018-07-01T03:01:05.802Z,28
2018-07-01T03:02:05.573Z,28
2018-07-01T03:03:05.569Z,32
2018-07-01T03:04:05.855Z,32
2018-07-01T03:05:05.366Z,32
2018-07-01T03:06:05.632Z,36
2018-07-01T03:07:05.654Z,36
2018-07-01T03:08:05.681Z,36
2018-07-01T03:09:05.781Z,44
2018-07-01T03:10:05.991Z,44
2018-07-01T03:11:05.998Z,44
2018-07-01T03:12:05.756Z,48
2018-07-01T03:13:06.049Z,48
2018-07-01T03:14:06.084Z,52
2018-07-01T03:15:05.814Z,56
2018-07-01T03:16:05.956Z,56
2018-07-01T03:17:06.148Z,60
2018-07-01T03:18:05.891Z,64
2018-07-01T03:19:05.634Z,64
2018-07-01T03:20:06.197Z,68
2018-07-01T03:21:05.950Z,68
2018-07-01T03:22:05.986Z,72
2018-07-01T03:23:06.259Z,76
2018-07-01T03:24:05.759Z,76
2018-07-01T03:25:06.027Z,80
2018-07-01T03:26:06.321Z,84
2018-07-01T03:27:06.345Z,84
2018-07-01T03:28:05.841Z,84
2018-07-01T03:29:06.121Z,88
2018-07-01T03:30:05.901Z,92
2018-07-01T03:31:06.429Z,96
2018-07-01T03:32:06.238Z,96
2018-07-01T03:33:06.203Z,96
2018-07-01T03:34:05.953Z,100
2018-07-01T03:35:06.243Z,100
2018-07-01T03:36:06.530Z,104
2018-07-01T03:37:06.286Z,104
2018-07-01T03:38:06.041Z,112
2018-07-01T03:39:06.336Z,112
2018-07-01T03:40:06.617Z,116
2018-07-01T03:41:06.378Z,116
2018-07-01T03:42:06.395Z,120
2018-07-01T03:43:06.688Z,120
2018-07-01T03:44:06.709Z,124
2018-07-01T03:45:06.739Z,124
2018-07-01T03:46:06.482Z,128
2018-07-01T03:47:06.495Z,128
2018-07-01T03:48:06.255Z,132
2018-07-01T03:49:06.825Z,132
2018-07-01T03:50:06.935Z,136
2018-07-01T03:51:06.859Z,136
2018-07-01T03:52:06.601Z,140
2018-07-01T03:53:06.646Z,140
2018-07-01T03:54:06.919Z,144
2018-07-01T03:55:06.690Z,140
2018-07-01T03:56:06.993Z,144
2018-07-01T03:57:06.733Z,144
2018-07-01T03:58:06.999Z,148
2018-07-01T03:59:06.756Z,148
2018-07-01T04:00:06.781Z,152
2018-07-01T04:01:07.073Z,156
2018-07-01T04:02:06.850Z,152
2018-07-01T04:03:07.108Z,156
2018-07-01T04:04:06.861Z,160
2018-07-01T04:05:06.879Z,160
2018-07-01T04:06:06.638Z,164
2018-07-01T04:07:07.200Z,160
2018-07-01T04:08:06.951Z,164
2018-07-01T04:09:07.233Z,168
2018-07-01T04:10:06.733Z,168
2018-07-01T04:11:07.003Z,172
2018-07-01T04:12:07.026Z,168
2018-07-01T04:13:07.048Z,172
2018-07-01T04:14:07.355Z,176
2018-07-01T04:15:07.355Z,176
2018-07-01T04:16:07.396Z,176
2018-07-01T04:17:07.400Z,180
2018-07-01T04:18:07.177Z,180
2018-07-01T04:19:07.179Z,180
2018-07-01T04:20:07.195Z,180
2018-07-01T04:21:06.952Z,184
2018-07-01T04:22:06.974Z,184
2018-07-01T04:23:07.253Z,184
2018-07-01T04:24:07.541Z,188
2018-07-01T04:25:07.568Z,192
2018-07-01T04:26:07.637Z,188
2018-07-01T04:27:07.603Z,188
2018-07-01T04:28:07.634Z,192
2018-07-01T04:29:07.380Z,188
2018-07-01T04:30:07.676Z,192
2018-07-01T04:31:07.637Z,192
2018-07-01T04:32:07.716Z,196
2018-07-01T04:33:07.202Z,196
2018-07-01T04:34:07.252Z,196
2018-07-01T04:35:07.241Z,200
2018-07-01T04:36:07.298Z,200
2018-07-01T04:37:07.552Z,200
2018-07-01T04:38:07.849Z,200
2018-07-01T04:39:07.852Z,200
2018-07-01T04:40:07.906Z,204
2018-07-01T04:41:07.632Z,204
2018-07-01T04:42:07.410Z,208
2018-07-01T04:43:07.677Z,208
2018-07-01T04:44:07.459Z,212
2018-07-01T04:45:07.984Z,212
2018-07-01T04:46:07.735Z,212
2018-07-01T04:47:08.025Z,216
2018-07-01T04:48:08.060Z,216
2018-07-01T04:49:08.104Z,216
2018-07-01T04:50:07.573Z,216
2018-07-01T04:51:07.572Z,220
2018-07-01T04:52:07.333Z,220
2018-07-01T04:53:07.899Z,216
2018-07-01T04:54:07.635Z,216
2018-07-01T04:55:08.220Z,220
2018-07-01T04:56:08.236Z,220
2018-07-01T04:57:07.702Z,224
2018-07-01T04:58:07.788Z,224
2018-07-01T04:59:08.013Z,224
2018-07-01T05:00:08.304Z,224
2018-07-01T05:01:08.047Z,228
2018-07-01T05:02:08.536Z,228
2018-07-01T05:03:08.361Z,224
2018-07-01T05:04:07.586Z,228
2018-07-01T05:05:08.144Z,228
2018-07-01T05:06:08.222Z,232
2018-07-01T05:07:08.466Z,228
2018-07-01T05:08:08.462Z,228
2018-07-01T05:09:08.226Z,228
2018-07-01T05:10:08.247Z,228
2018-07-01T05:11:08.256Z,228
2018-07-01T05:12:08.471Z,228
2018-07-01T05:13:08.034Z,228
2018-07-01T05:14:08.066Z,232
2018-07-01T05:15:08.611Z,232
2018-07-01T05:16:08.627Z,232
2018-07-01T05:17:08.819Z,232
2018-07-01T05:18:08.154Z,236
2018-07-01T05:19:08.700Z,232
2018-07-01T05:20:08.202Z,232
2018-07-01T05:21:08.466Z,232
2018-07-01T05:22:08.219Z,236
2018-07-01T05:23:09.423Z,236
2018-07-01T05:24:08.859Z,236
2018-07-01T05:25:09.348Z,236
2018-07-01T05:26:09.013Z,236
2018-07-01T05:27:09.743Z,240
2018-07-01T05:28:08.609Z,240
2018-07-01T05:29:08.693Z,236
2018-07-01T05:30:08.384Z,236
2018-07-01T05:31:08.677Z,240
2018-07-01T05:32:08.969Z,240
2018-07-01T05:33:08.448Z,240
2018-07-01T05:34:09.001Z,240
2018-07-01T05:35:09.155Z,240
2018-07-01T05:36:08.777Z,240
2018-07-01T05:37:09.069Z,240
2018-07-01T05:38:09.081Z,244
2018-07-01T05:39:09.113Z,240
2018-07-01T05:40:08.333Z,240
2018-07-01T05:41:08.623Z,244
2018-07-01T05:42:08.640Z,240
2018-07-01T05:43:08.934Z,244
2018-07-01T05:44:08.405Z,244
2018-07-01T05:45:08.977Z,244
2018-07-01T05:46:08.983Z,244
2018-07-01T05:47:08.739Z,248
2018-07-01T05:48:09.305Z,244
2018-07-01T05:49:09.323Z,244
2018-07-01T05:50:08.801Z,248
2018-07-01T05:51:09.353Z,248
2018-07-01T05:52:09.112Z,248
2018-07-01T05:53:09.126Z,248
2018-07-01T05:54:09.417Z,248
2018-07-01T05:55:09.167Z,252
2018-07-01T05:56:09.136Z,252
2018-07-01T05:57:09.313Z,248
2018-07-01T05:58:09.235Z,252
2018-07-01T05:59:09.266Z,252
2018-07-01T06:00:08.752Z,252
2018-07-01T06:01:09.029Z,252
2018-07-01T06:02:09.315Z,252
2018-07-01T06:03:09.068Z,252
2018-07-01T06:04:09.361Z,256
2018-07-01T06:05:09.652Z,252
2018-07-01T06:06:09.422Z,256
2018-07-01T06:07:09.422Z,256
2018-07-01T06:08:09.172Z,256
2018-07-01T06:09:09.193Z,256
2018-07-01T06:10:10.142Z,256
2018-07-01T06:11:09.236Z,256
2018-07-01T06:12:09.521Z,260
2018-07-01T06:13:09.276Z,260
2018-07-01T06:14:09.748Z,256
2018-07-01T06:15:09.582Z,260
2018-07-01T06:16:09.339Z,260
2018-07-01T06:17:09.084Z,260
2018-07-01T06:18:09.653Z,260
2018-07-01T06:19:09.664Z,260
2018-07-01T06:20:09.696Z,260
2018-07-01T06:21:09.998Z,260
2018-07-01T06:22:09.732Z,260
2018-07-01T06:23:10.026Z,260
2018-07-01T06:24:09.763Z,264
2018-07-01T06:25:09.800Z,260
2018-07-01T06:26:09.546Z,260
2018-07-01T06:27:09.830Z,264
2018-07-01T06:28:10.123Z,264
2018-07-01T06:29:10.153Z,264
2018-07-01T06:30:09.623Z,264
2018-07-01T06:31:10.179Z,268
2018-07-01T06:32:10.208Z,264
2018-07-01T06:33:10.218Z,264
2018-07-01T06:34:09.976Z,268
2018-07-01T06:35:09.460Z,264
2018-07-01T06:36:10.021Z,268
2018-07-01T06:37:10.310Z,268
2018-07-01T06:38:10.049Z,268
2018-07-01T06:39:10.085Z,272
2018-07-01T06:40:10.363Z,272
2018-07-01T06:41:10.384Z,276
2018-07-01T06:42:10.395Z,276
2018-07-01T06:43:10.440Z,272
2018-07-01T06:44:09.920Z,276
2018-07-01T06:45:09.930Z,276
2018-07-01T06:46:09.954Z,276
2018-07-01T06:47:10.245Z,272
2018-07-01T06:48:10.004Z,276
2018-07-01T06:49:10.053Z,276
2018-07-01T06:50:10.045Z,276
2018-07-01T06:51:10.064Z,280
2018-07-01T06:52:10.619Z,280
2018-07-01T06:53:10.629Z,280
2018-07-01T06:54:10.387Z,280
2018-07-01T06:55:10.714Z,280
2018-07-01T06:56:10.159Z,276
2018-07-01T06:57:10.187Z,280
2018-07-01T06:58:10.744Z,280
2018-07-01T06:59:10.496Z,280
2018-07-01T07:00:10.250Z,284
2018-07-01T07:01:10.266Z,284
2018-07-01T07:02:10.834Z,280
2018-07-01T07:03:10.592Z,280
2018-07-01T07:04:10.863Z,284
2018-07-01T07:05:10.359Z,280
2018-07-01T07:06:10.908Z,284
2018-07-01T07:07:10.665Z,284
2018-07-01T07:08:10.908Z,284
2018-07-01T07:09:10.713Z,284
2018-07-01T07:10:10.459Z,284
2018-07-01T07:11:10.866Z,288
2018-07-01T07:12:11.034Z,284
2018-07-01T07:13:10.787Z,284
2018-07-01T07:14:11.079Z,288
2018-07-01T07:15:11.100Z,284
2018-07-01T07:16:10.612Z,288
2018-07-01T07:17:11.144Z,288
2018-07-01T07:18:11.167Z,288
2018-07-01T07:19:11.192Z,292
2018-07-01T07:20:11.208Z,292
2018-07-01T07:21:11.222Z,288
2018-07-01T07:22:11.251Z,292
2018-07-01T07:23:11.267Z,292
2018-07-01T07:24:11.288Z,300
2018-07-01T07:25:11.320Z,300
2018-07-01T07:26:10.812Z,304
2018-07-01T07:27:11.081Z,304
2018-07-01T07:28:11.103Z,308
2018-07-01T07:29:11.126Z,312
2018-07-01T07:30:11.418Z,316
2018-07-01T07:31:11.171Z,316
2018-07-01T07:32:11.621Z,320
2018-07-01T07:33:11.481Z,320
2018-07-01T07:34:11.231Z,324
2018-07-01T07:35:11.519Z,328
2018-07-01T07:36:11.296Z,328
2018-07-01T07:37:11.304Z,332
2018-07-01T07:38:11.317Z,332
2018-07-01T07:39:11.669Z,340
2018-07-01T07:40:11.095Z,344
2018-07-01T07:41:11.648Z,348
2018-07-01T07:42:11.674Z,352
2018-07-01T07:43:11.696Z,356
2018-07-01T07:44:11.710Z,356
2018-07-01T07:45:11.684Z,364
2018-07-01T07:46:11.500Z,364
2018-07-01T07:47:11.511Z,368
2018-07-01T07:48:11.266Z,372
2018-07-01T07:49:11.559Z,376
2018-07-01T07:50:11.585Z,380
2018-07-01T07:51:11.870Z,384
2018-07-01T07:52:11.785Z,384
2018-07-01T07:53:11.646Z,388
2018-07-01T07:54:11.668Z,396
2018-07-01T07:55:11.959Z,400
2018-07-01T07:56:11.981Z,408
2018-07-01T07:57:11.460Z,408
2018-07-01T07:58:12.042Z,416
2018-07-01T07:59:11.779Z,416
2018-07-01T08:00:12.076Z,424
2018-07-01T08:01:11.825Z,428
2018-07-01T08:02:12.129Z,428
2018-07-01T08:03:11.862Z,432
2018-07-01T08:04:11.884Z,440
2018-07-01T08:05:11.914Z,444
2018-07-01T08:06:11.930Z,452
2018-07-01T08:07:12.229Z,456
2018-07-01T08:08:12.245Z,460
2018-07-01T08:09:12.002Z,468
2018-07-01T08:10:12.035Z,472
2018-07-01T08:11:12.055Z,476
2018-07-01T08:12:12.068Z,488
2018-07-01T08:13:12.756Z,496
2018-07-01T08:14:12.129Z,496
2018-07-01T08:15:12.140Z,508
2018-07-01T08:16:12.164Z,504
2018-07-01T08:17:12.442Z,512
2018-07-01T08:18:12.461Z,516
2018-07-01T08:19:12.214Z,520
2018-07-01T08:20:12.022Z,524
2018-07-01T08:21:12.259Z,532
2018-07-01T08:22:12.298Z,536
2018-07-01T08:23:12.582Z,540
2018-07-01T08:24:12.062Z,548
2018-07-01T08:25:12.674Z,552
2018-07-01T08:26:12.643Z,556
2018-07-01T08:27:12.402Z,564
2018-07-01T08:28:12.419Z,568
2018-07-01T08:29:12.446Z,576
2018-07-01T08:30:12.255Z,584
2018-07-01T08:31:12.489Z,584
2018-07-01T08:32:12.775Z,588
2018-07-01T08:33:12.812Z,596
2018-07-01T08:34:12.554Z,604
2018-07-01T08:35:12.880Z,612
2018-07-01T08:36:12.881Z,616
2018-07-01T08:37:12.623Z,624
2018-07-01T08:38:12.387Z,632
2018-07-01T08:39:12.137Z,636
2018-07-01T08:40:12.811Z,640
2018-07-01T08:41:12.713Z,644
2018-07-01T08:42:12.747Z,648
2018-07-01T08:43:13.027Z,656
2018-07-01T08:44:13.061Z,668
2018-07-01T08:45:12.548Z,676
2018-07-01T08:46:12.917Z,680
2018-07-01T08:47:12.858Z,688
2018-07-01T08:48:13.222Z,696
2018-07-01T08:49:13.174Z,696
2018-07-01T08:50:13.205Z,708
2018-07-01T08:51:12.693Z,732
2018-07-01T08:52:13.245Z,744
2018-07-01T08:53:13.269Z,744
2018-07-01T08:54:12.757Z,752
2018-07-01T08:55:13.069Z,744
2018-07-01T08:56:13.071Z,740
2018-07-01T08:57:13.092Z,744
2018-07-01T08:58:13.115Z,756
2018-07-01T08:59:13.139Z,768
2018-07-01T09:00:13.445Z,772
2018-07-01T09:01:13.189Z,788
2018-07-01T09:02:12.941Z,800
2018-07-01T09:03:13.241Z,796
2018-07-01T09:04:13.259Z,804
2018-07-01T09:05:13.283Z,808
2018-07-01T09:06:13.590Z,808
2018-07-01T09:07:13.063Z,812
2018-07-01T09:08:13.549Z,812
2018-07-01T09:09:13.376Z,816
2018-07-01T09:10:13.677Z,820
2018-07-01T09:11:13.483Z,836
2018-07-01T09:12:13.725Z,856
2018-07-01T09:13:13.746Z,860
2018-07-01T09:14:13.498Z,860
2018-07-01T09:15:13.846Z,860
2018-07-01T09:16:13.828Z,860
2018-07-01T09:17:13.711Z,864
2018-07-01T09:18:13.334Z,868
2018-07-01T09:19:13.355Z,880
2018-07-01T09:20:13.930Z,884
2018-07-01T09:21:13.675Z,892
2018-07-01T09:22:13.958Z,896
2018-07-01T09:23:13.994Z,904
2018-07-01T09:24:13.478Z,912
2018-07-01T09:25:14.045Z,920
2018-07-01T09:26:13.799Z,928
2018-07-01T09:27:14.092Z,936
2018-07-01T09:28:14.463Z,944
2018-07-01T09:29:13.868Z,948
2018-07-01T09:30:13.904Z,956
2018-07-01T09:31:13.923Z,968
2018-07-01T09:32:14.380Z,976
2018-07-01T09:33:14.239Z,992
2018-07-01T09:34:14.307Z,1000
2018-07-01T09:35:14.295Z,1004
2018-07-01T09:36:14.058Z,1016
2018-07-01T09:37:14.348Z,1024
2018-07-01T09:38:13.561Z,1032
2018-07-01T09:39:14.387Z,1040
2018-07-01T09:40:14.144Z,1052
2018-07-01T09:41:14.438Z,1064
2018-07-01T09:42:14.204Z,1072
2018-07-01T09:43:14.536Z,1088
2018-07-01T09:44:14.248Z,1088
2018-07-01T09:45:14.280Z,1100
2018-07-01T09:46:14.299Z,992
2018-07-01T09:47:14.595Z,536
2018-07-01T09:48:14.620Z,1072
2018-07-01T09:49:14.114Z,1172
2018-07-01T09:50:14.728Z,1192
2018-07-01T09:51:14.775Z,1160
2018-07-01T09:52:14.717Z,1212
2018-07-01T09:53:14.754Z,1176
2018-07-01T09:54:14.506Z,1176
2018-07-01T09:55:14.528Z,1188
2018-07-01T09:56:14.295Z,1212
2018-07-01T09:57:14.849Z,1296
2018-07-01T09:58:14.875Z,1448
2018-07-01T09:59:14.637Z,1708
2018-07-01T10:00:14.664Z,2220
2018-07-01T10:01:15.191Z,2720
2018-07-01T10:02:14.451Z,3200
2018-07-01T10:03:15.013Z,3308
2018-07-01T10:04:14.503Z,2528
2018-07-01T10:05:15.061Z,1904
2018-07-01T10:06:15.091Z,1552
2018-07-01T10:07:15.117Z,1360
2018-07-01T10:08:14.877Z,1304
2018-07-01T10:09:14.891Z,1304
2018-07-01T10:10:15.240Z,1316
2018-07-01T10:11:15.218Z,1332
2018-07-01T10:12:14.710Z,1340
2018-07-01T10:13:15.001Z,1356
2018-07-01T10:14:15.040Z,1364
2018-07-01T10:15:15.054Z,1368
2018-07-01T10:16:15.081Z,1376
2018-07-01T10:17:15.110Z,1396
2018-07-01T10:18:15.422Z,1436
2018-07-01T10:19:15.433Z,1452
2018-07-01T10:20:15.191Z,1424
2018-07-01T10:21:15.488Z,1416
2018-07-01T10:22:15.523Z,1412
2018-07-01T10:23:15.542Z,1448
2018-07-01T10:24:15.035Z,1652
2018-07-01T10:25:15.326Z,1800
2018-07-01T10:26:15.627Z,1632
2018-07-01T10:27:15.436Z,1580
2018-07-01T10:28:15.677Z,1512
2018-07-01T10:29:15.446Z,1500
2018-07-01T10:30:15.459Z,1500
2018-07-01T10:31:15.491Z,1572
2018-07-01T10:32:15.785Z,1968
2018-07-01T10:33:15.286Z,1572
2018-07-01T10:34:15.311Z,1508
2018-07-01T10:35:15.601Z,1140
2018-07-01T10:36:15.895Z,1640
2018-07-01T10:37:15.402Z,2008
2018-07-01T10:38:15.686Z,1512
2018-07-01T10:39:15.709Z,1708
2018-07-01T10:40:15.971Z,1676
2018-07-01T10:41:15.778Z,1708
2018-07-01T10:42:15.790Z,1700
2018-07-01T10:43:16.091Z,1676
2018-07-01T10:44:15.851Z,1668
2018-07-01T10:45:15.878Z,1680
2018-07-01T10:46:15.640Z,1712
2018-07-01T10:47:15.944Z,1796
2018-07-01T10:48:15.958Z,1828
2018-07-01T10:49:15.994Z,1984
2018-07-01T10:50:16.294Z,1988
2018-07-01T10:51:16.168Z,2284
2018-07-01T10:52:16.346Z,2616
2018-07-01T10:53:16.108Z,2688
2018-07-01T10:54:15.868Z,2996
2018-07-01T10:55:16.426Z,2760
2018-07-01T10:56:15.923Z,2408
2018-07-01T10:57:16.486Z,2380
2018-07-01T10:58:16.244Z,1844
2018-07-01T10:59:16.272Z,2376
2018-07-01T11:00:16.308Z,2184
2018-07-01T11:01:16.329Z,2272
2018-07-01T11:02:16.416Z,2800
2018-07-01T11:03:16.398Z,3340
2018-07-01T11:04:16.691Z,3232
2018-07-01T11:05:16.442Z,3656
2018-07-01T11:06:17.426Z,3384
2018-07-01T11:07:16.236Z,2964
2018-07-01T11:08:16.537Z,2372
2018-07-01T11:09:16.828Z,2344
2018-07-01T11:10:16.881Z,2136
2018-07-01T11:11:16.893Z,2112
2018-07-01T11:12:16.914Z,2252
2018-07-01T11:13:17.304Z,2560
2018-07-01T11:14:16.438Z,2336
2018-07-01T11:15:16.202Z,2392
2018-07-01T11:16:16.766Z,2304
2018-07-01T11:17:17.066Z,2516
2018-07-01T11:18:17.096Z,2364
2018-07-01T11:19:16.861Z,2288
2018-07-01T11:20:16.657Z,2272
2018-07-01T11:21:17.185Z,2272
2018-07-01T11:22:17.206Z,2336
2018-07-01T11:23:17.246Z,2840
2018-07-01T11:24:17.269Z,3320
2018-07-01T11:25:17.028Z,3236
2018-07-01T11:26:17.061Z,3160
2018-07-01T11:27:18.229Z,2996
2018-07-01T11:28:17.384Z,2684
2018-07-01T11:29:17.156Z,2580
2018-07-01T11:30:16.921Z,2476
2018-07-01T11:31:17.204Z,2440
2018-07-01T11:32:17.511Z,2436
2018-07-01T11:33:17.279Z,2464
2018-07-01T11:34:17.298Z,2508
2018-07-01T11:35:17.877Z,2568
2018-07-01T11:36:17.091Z,2624
2018-07-01T11:37:17.392Z,2948
2018-07-01T11:38:18.087Z,3572
2018-07-01T11:39:17.720Z,3888
2018-07-01T11:40:17.744Z,4320
2018-07-01T11:41:17.772Z,4956
2018-07-01T11:42:17.268Z,5124
2018-07-01T11:43:17.842Z,4884
2018-07-01T11:44:17.870Z,4324
2018-07-01T11:45:17.624Z,3544
2018-07-01T11:46:17.655Z,3152
2018-07-01T11:47:17.683Z,3020
2018-07-01T11:48:17.981Z,3280
2018-07-01T11:49:18.019Z,3084
2018-07-01T11:50:18.049Z,1356
2018-07-01T11:51:18.085Z,1848
2018-07-01T11:52:18.227Z,2056
2018-07-01T11:53:18.141Z,2732
2018-07-01T11:54:18.183Z,3160
2018-07-01T11:55:17.931Z,3116
2018-07-01T11:56:18.230Z,3136
2018-07-01T11:57:17.992Z,2772
2018-07-01T11:58:18.041Z,2284
2018-07-01T11:59:18.058Z,4168
2018-07-01T12:00:18.090Z,3308
2018-07-01T12:01:18.115Z,3184
2018-07-01T12:02:18.423Z,4000
2018-07-01T12:03:18.178Z,4320
2018-07-01T12:04:18.209Z,3932
2018-07-01T12:05:24.530Z,4100
2018-07-01T12:06:18.539Z,4508
2018-07-01T12:07:18.580Z,3448
2018-07-01T12:08:18.076Z,2472
2018-07-01T12:09:18.633Z,1724
2018-07-01T12:10:18.395Z,3740
2018-07-01T12:11:18.702Z,3412
2018-07-01T12:12:18.731Z,3388
2018-07-01T12:13:18.746Z,3368
2018-07-01T12:14:18.254Z,3448
2018-07-01T12:15:18.558Z,3488
2018-07-01T12:16:18.855Z,3884
2018-07-01T12:17:18.880Z,4132
2018-07-01T12:18:18.908Z,2852
2018-07-01T12:19:18.941Z,2392
2018-07-01T12:20:18.985Z,5248
2018-07-01T12:21:18.751Z,5328
2018-07-01T12:22:19.042Z,5152
2018-07-01T12:23:18.958Z,5240
2018-07-01T12:24:18.833Z,5320
2018-07-01T12:25:19.141Z,4772
2018-07-01T12:26:19.160Z,4092
2018-07-01T12:27:18.927Z,3796
2018-07-01T12:28:19.231Z,3676
2018-07-01T12:29:19.260Z,3688
2018-07-01T12:30:19.311Z,3704
2018-07-01T12:31:19.316Z,3716
2018-07-01T12:32:19.353Z,3736
2018-07-01T12:33:19.383Z,3736
2018-07-01T12:34:19.153Z,3744
2018-07-01T12:35:19.503Z,3764
2018-07-01T12:36:19.209Z,3788
2018-07-01T12:37:19.248Z,3836
2018-07-01T12:38:19.540Z,4048
2018-07-01T12:39:19.573Z,4244
2018-07-01T12:40:19.342Z,4212
2018-07-01T12:41:19.637Z,4236
2018-07-01T12:42:19.584Z,4188
2018-07-01T12:43:19.706Z,5304
2018-07-01T12:44:19.466Z,4956
2018-07-01T12:45:19.772Z,4684
2018-07-01T12:46:19.529Z,4536
2018-07-01T12:47:19.832Z,4368
2018-07-01T12:48:19.598Z,4172
2018-07-01T12:49:19.363Z,4128
2018-07-01T12:50:19.666Z,4176
2018-07-01T12:51:19.693Z,4292
2018-07-01T12:52:19.462Z,4332
2018-07-01T12:53:19.756Z,4388
2018-07-01T12:54:19.782Z,4356
2018-07-01T12:55:20.090Z,4444
2018-07-01T12:56:20.395Z,4608
2018-07-01T12:57:20.149Z,2184
2018-07-01T12:58:19.917Z,5160
2018-07-01T12:59:19.944Z,5176
2018-07-01T13:00:19.991Z,2016
2018-07-01T13:01:20.011Z,4732
2018-07-01T13:02:19.781Z,5272
2018-07-01T13:03:20.356Z,5088
2018-07-01T13:04:20.391Z,5108
2018-07-01T13:05:20.154Z,5056
2018-07-01T13:06:20.178Z,5020
2018-07-01T13:07:20.208Z,4916
2018-07-01T13:08:20.241Z,4808
2018-07-01T13:09:20.274Z,4680
2018-07-01T13:10:20.572Z,4692
2018-07-01T13:11:20.338Z,4852
2018-07-01T13:12:20.723Z,5200
2018-07-01T13:13:20.676Z,5500
2018-07-01T13:14:20.443Z,5764
2018-07-01T13:15:20.747Z,5836
2018-07-01T13:16:20.239Z,3252
2018-07-01T13:17:20.009Z,5612
2018-07-01T13:18:20.050Z,4408
2018-07-01T13:19:20.879Z,5284
2018-07-01T13:20:20.635Z,5208
2018-07-01T13:21:20.949Z,5276
2018-07-01T13:22:20.701Z,5384
2018-07-01T13:23:21.004Z,5396
2018-07-01T13:24:21.028Z,5380
2018-07-01T13:25:20.997Z,5424
2018-07-01T13:26:20.567Z,5380
2018-07-01T13:27:21.137Z,5264
2018-07-01T13:28:21.166Z,5464
2018-07-01T13:29:20.985Z,5704
2018-07-01T13:30:20.966Z,5780
2018-07-01T13:31:21.265Z,5928
2018-07-01T13:32:21.034Z,6308
2018-07-01T13:33:21.330Z,6432
2018-07-01T13:34:21.373Z,6496
2018-07-01T13:35:21.493Z,5288
2018-07-01T13:36:21.175Z,7072
2018-07-01T13:37:21.211Z,7220
2018-07-01T13:38:21.234Z,7244
2018-07-01T13:39:21.542Z,5664
2018-07-01T13:40:21.572Z,3556
2018-07-01T13:41:21.338Z,3772
2018-07-01T13:42:21.371Z,3880
2018-07-01T13:43:21.674Z,3872
2018-07-01T13:44:21.439Z,2692
2018-07-01T13:45:21.729Z,4156
2018-07-01T13:46:21.794Z,1516
2018-07-01T13:47:21.802Z,6124
2018-07-01T13:48:21.305Z,5124
2018-07-01T13:49:21.798Z,5924
2018-07-01T13:50:21.913Z,5808
2018-07-01T13:51:21.674Z,5844
2018-07-01T13:52:21.704Z,5828